CheckWX is a tool to help pilots better visualize weather data.  It is not intended as a substitute for an official pre-flight weather briefing.

06:20:50 UTC

KHOT METAR
Memorial Field Airport
Hot Springs, Arkansas, USA
Current

28 mins ago

KHOT 050553Z AUTO 00000KT 5SM BR BKN090 24/22 A2991 RMK AO2 SLP122 T02440222 10289 20244 403110217 50003
Observed
Jul-5 @ 05:53 UTC
Visibility
5 SM
Flight Rules
MVFR
Conditions
Mist
Cloud Levels
  • Broken at 9,000' AGL
Dewpoint
22°C / 72°F
Humidity
89%
Altimeter
29.91" Hg
Pressure
1012.92 hPa
Previous

1 hour ago

KHOT 050453Z AUTO 00000KT 6SM HZ BKN080 24/22 A2993 RMK AO2 SLP127 T02440217
Observed
Jul-5 @ 04:53 UTC
Visibility
6 SM
Flight Rules
VFR
Conditions
Haze
Cloud Levels
  • Broken at 8,000' AGL
Temperature
24°C / 75°F
Dewpoint
22°C / 72°F
Humidity
89%
Altimeter
29.93" Hg
Pressure
1013.52 hPa
Previous

2 hours ago

KHOT 050353Z AUTO 00000KT 6SM HZ CLR 24/22 A2992 RMK AO2 SLP123 T02440217
Observed
Jul-5 @ 03:53 UTC
Visibility
6 SM
Flight Rules
VFR
Conditions
Haze
Cloud Levels
  • Clear skies
Temperature
24°C / 75°F
Dewpoint
22°C / 72°F
Humidity
89%
Altimeter
29.92" Hg
Pressure
1013.22 hPa